sensor_id;sensor_type;location;lat;lon;timestamp;P1;durP1;ratioP1;P2;durP2;ratioP2
21519;SDS011;10921;53.614;9.882;2024-01-25T00:01:34;70.30;;;22.05;;
21519;SDS011;10921;53.614;9.882;2024-01-25T00:04:01;82.63;;;22.70;;
21519;SDS011;10921;53.614;9.882;2024-01-25T00:06:27;79.22;;;24.25;;
21519;SDS011;10921;53.614;9.882;2024-01-25T00:08:54;69.35;;;23.58;;
21519;SDS011;10921;53.614;9.882;2024-01-25T00:11:20;82.82;;;23.85;;
21519;SDS011;10921;53.614;9.882;2024-01-25T00:13:47;79.20;;;22.75;;
21519;SDS011;10921;53.614;9.882;2024-01-25T00:16:13;74.60;;;22.35;;
21519;SDS011;10921;53.614;9.882;2024-01-25T00:18:40;79.05;;;20.60;;
21519;SDS011;10921;53.614;9.882;2024-01-25T00:21:07;78.10;;;22.55;;
21519;SDS011;10921;53.614;9.882;2024-01-25T00:23:33;82.50;;;23.20;;
21519;SDS011;10921;53.614;9.882;2024-01-25T00:26:00;87.28;;;23.45;;
21519;SDS011;10921;53.614;9.882;2024-01-25T00:28:26;89.13;;;23.55;;
21519;SDS011;10921;53.614;9.882;2024-01-25T00:30:54;73.30;;;21.67;;
21519;SDS011;10921;53.614;9.882;2024-01-25T00:33:21;88.32;;;23.02;;
21519;SDS011;10921;53.614;9.882;2024-01-25T00:35:48;71.20;;;21.92;;
21519;SDS011;10921;53.614;9.882;2024-01-25T00:38:15;73.78;;;21.85;;
21519;SDS011;10921;53.614;9.882;2024-01-25T00:40:42;80.93;;;22.85;;
21519;SDS011;10921;53.614;9.882;2024-01-25T00:43:09;78.68;;;23.38;;
21519;SDS011;10921;53.614;9.882;2024-01-25T00:45:36;75.00;;;20.98;;
21519;SDS011;10921;53.614;9.882;2024-01-25T00:48:03;70.45;;;22.13;;
21519;SDS011;10921;53.614;9.882;2024-01-25T00:50:30;86.68;;;23.38;;
21519;SDS011;10921;53.614;9.882;2024-01-25T00:52:57;81.30;;;23.50;;
21519;SDS011;10921;53.614;9.882;2024-01-25T00:55:24;76.47;;;22.58;;
21519;SDS011;10921;53.614;9.882;2024-01-25T00:57:51;94.22;;;23.50;;
21519;SDS011;10921;53.614;9.882;2024-01-25T01:00:18;87.25;;;23.48;;
21519;SDS011;10921;53.614;9.882;2024-01-25T01:02:45;70.75;;;22.70;;
21519;SDS011;10921;53.614;9.882;2024-01-25T01:05:12;84.32;;;22.92;;
21519;SDS011;10921;53.614;9.882;2024-01-25T01:07:40;84.57;;;22.63;;
21519;SDS011;10921;53.614;9.882;2024-01-25T01:10:08;92.20;;;23.08;;
21519;SDS011;10921;53.614;9.882;2024-01-25T01:12:36;82.35;;;22.40;;
21519;SDS011;10921;53.614;9.882;2024-01-25T01:15:03;93.13;;;24.08;;
21519;SDS011;10921;53.614;9.882;2024-01-25T01:17:30;82.68;;;23.10;;
21519;SDS011;10921;53.614;9.882;2024-01-25T01:19:57;87.50;;;23.98;;
21519;SDS011;10921;53.614;9.882;2024-01-25T01:22:24;79.38;;;24.52;;
21519;SDS011;10921;53.614;9.882;2024-01-25T01:24:51;86.68;;;23.52;;
21519;SDS011;10921;53.614;9.882;2024-01-25T01:27:17;63.70;;;21.00;;
21519;SDS011;10921;53.614;9.882;2024-01-25T01:29:46;81.95;;;23.10;;
21519;SDS011;10921;53.614;9.882;2024-01-25T01:32:13;94.57;;;23.42;;
21519;SDS011;10921;53.614;9.882;2024-01-25T01:34:39;89.95;;;22.63;;
21519;SDS011;10921;53.614;9.882;2024-01-25T01:37:06;71.78;;;22.35;;
21519;SDS011;10921;53.614;9.882;2024-01-25T01:39:33;53.38;;;19.65;;
21519;SDS011;10921;53.614;9.882;2024-01-25T01:41:59;87.28;;;22.42;;
21519;SDS011;10921;53.614;9.882;2024-01-25T01:44:26;81.65;;;23.35;;
21519;SDS011;10921;53.614;9.882;2024-01-25T01:46:52;75.45;;;21.88;;
21519;SDS011;10921;53.614;9.882;2024-01-25T01:49:21;75.65;;;22.25;;
21519;SDS011;10921;53.614;9.882;2024-01-25T01:51:48;67.60;;;21.92;;
21519;SDS011;10921;53.614;9.882;2024-01-25T01:54:15;76.15;;;23.30;;
21519;SDS011;10921;53.614;9.882;2024-01-25T01:56:42;81.15;;;21.73;;
21519;SDS011;10921;53.614;9.882;2024-01-25T01:59:11;74.82;;;21.85;;
21519;SDS011;10921;53.614;9.882;2024-01-25T02:01:37;66.07;;;21.80;;
21519;SDS011;10921;53.614;9.882;2024-01-25T02:04:04;75.97;;;21.38;;
21519;SDS011;10921;53.614;9.882;2024-01-25T02:06:32;78.63;;;23.65;;
21519;SDS011;10921;53.614;9.882;2024-01-25T02:08:59;76.28;;;21.77;;
21519;SDS011;10921;53.614;9.882;2024-01-25T02:11:26;76.38;;;22.20;;
21519;SDS011;10921;53.614;9.882;2024-01-25T02:13:53;66.40;;;22.73;;
21519;SDS011;10921;53.614;9.882;2024-01-25T02:16:19;76.82;;;22.60;;
21519;SDS011;10921;53.614;9.882;2024-01-25T02:18:47;67.63;;;21.50;;
21519;SDS011;10921;53.614;9.882;2024-01-25T02:21:14;80.68;;;22.52;;
21519;SDS011;10921;53.614;9.882;2024-01-25T02:23:41;72.55;;;21.63;;
21519;SDS011;10921;53.614;9.882;2024-01-25T02:26:07;70.03;;;21.33;;
21519;SDS011;10921;53.614;9.882;2024-01-25T02:28:34;57.97;;;19.17;;
21519;SDS011;10921;53.614;9.882;2024-01-25T02:31:01;70.47;;;21.13;;
21519;SDS011;10921;53.614;9.882;2024-01-25T02:33:29;66.40;;;19.70;;
21519;SDS011;10921;53.614;9.882;2024-01-25T02:35:56;80.20;;;18.92;;
21519;SDS011;10921;53.614;9.882;2024-01-25T02:38:22;56.40;;;20.08;;
21519;SDS011;10921;53.614;9.882;2024-01-25T02:40:49;74.47;;;21.98;;
21519;SDS011;10921;53.614;9.882;2024-01-25T02:43:16;72.78;;;21.23;;
21519;SDS011;10921;53.614;9.882;2024-01-25T02:45:44;79.55;;;22.35;;
21519;SDS011;10921;53.614;9.882;2024-01-25T02:48:10;75.10;;;20.20;;
21519;SDS011;10921;53.614;9.882;2024-01-25T02:50:37;60.50;;;20.17;;
21519;SDS011;10921;53.614;9.882;2024-01-25T02:53:03;85.00;;;22.98;;
21519;SDS011;10921;53.614;9.882;2024-01-25T02:55:31;59.60;;;20.65;;
21519;SDS011;10921;53.614;9.882;2024-01-25T03:00:28;71.82;;;20.55;;
21519;SDS011;10921;53.614;9.882;2024-01-25T03:02:55;63.67;;;20.30;;
21519;SDS011;10921;53.614;9.882;2024-01-25T03:05:21;65.90;;;20.95;;
21519;SDS011;10921;53.614;9.882;2024-01-25T03:07:48;65.75;;;20.73;;
21519;SDS011;10921;53.614;9.882;2024-01-25T03:10:15;71.03;;;20.65;;
21519;SDS011;10921;53.614;9.882;2024-01-25T03:12:41;85.85;;;22.65;;
21519;SDS011;10921;53.614;9.882;2024-01-25T03:15:09;77.03;;;22.20;;
21519;SDS011;10921;53.614;9.882;2024-01-25T03:17:37;61.20;;;19.63;;
21519;SDS011;10921;53.614;9.882;2024-01-25T03:20:04;79.55;;;22.52;;
21519;SDS011;10921;53.614;9.882;2024-01-25T03:22:31;73.45;;;21.85;;
21519;SDS011;10921;53.614;9.882;2024-01-25T03:24:57;75.25;;;20.73;;
21519;SDS011;10921;53.614;9.882;2024-01-25T03:27:24;74.00;;;22.00;;
21519;SDS011;10921;53.614;9.882;2024-01-25T03:29:51;65.05;;;21.20;;
21519;SDS011;10921;53.614;9.882;2024-01-25T03:32:17;77.53;;;21.98;;
21519;SDS011;10921;53.614;9.882;2024-01-25T03:34:44;72.53;;;20.88;;
21519;SDS011;10921;53.614;9.882;2024-01-25T03:37:11;69.20;;;21.20;;
21519;SDS011;10921;53.614;9.882;2024-01-25T03:39:37;75.53;;;21.88;;
21519;SDS011;10921;53.614;9.882;2024-01-25T03:42:04;72.68;;;20.85;;
21519;SDS011;10921;53.614;9.882;2024-01-25T03:44:30;77.47;;;22.42;;
21519;SDS011;10921;53.614;9.882;2024-01-25T03:47:17;66.40;;;20.50;;
21519;SDS011;10921;53.614;9.882;2024-01-25T03:49:44;66.75;;;20.83;;
21519;SDS011;10921;53.614;9.882;2024-01-25T03:52:12;78.93;;;22.27;;
21519;SDS011;10921;53.614;9.882;2024-01-25T03:54:38;85.22;;;22.48;;
21519;SDS011;10921;53.614;9.882;2024-01-25T03:57:06;80.05;;;21.85;;
21519;SDS011;10921;53.614;9.882;2024-01-25T03:59:32;74.68;;;21.40;;
21519;SDS011;10921;53.614;9.882;2024-01-25T04:01:59;67.40;;;20.10;;
21519;SDS011;10921;53.614;9.882;2024-01-25T04:04:26;79.40;;;21.45;;
21519;SDS011;10921;53.614;9.882;2024-01-25T04:06:52;64.15;;;20.80;;
21519;SDS011;10921;53.614;9.882;2024-01-25T04:09:19;71.57;;;20.95;;
21519;SDS011;10921;53.614;9.882;2024-01-25T04:11:46;78.32;;;21.85;;
21519;SDS011;10921;53.614;9.882;2024-01-25T04:14:12;66.47;;;21.13;;
21519;SDS011;10921;53.614;9.882;2024-01-25T04:16:39;67.13;;;20.90;;
21519;SDS011;10921;53.614;9.882;2024-01-25T04:19:06;72.72;;;21.52;;
21519;SDS011;10921;53.614;9.882;2024-01-25T04:21:36;66.35;;;19.48;;
21519;SDS011;10921;53.614;9.882;2024-01-25T04:26:30;59.85;;;19.63;;
21519;SDS011;10921;53.614;9.882;2024-01-25T04:28:57;75.40;;;20.45;;
21519;SDS011;10921;53.614;9.882;2024-01-25T04:31:23;71.88;;;21.45;;
21519;SDS011;10921;53.614;9.882;2024-01-25T04:33:50;81.65;;;21.23;;
21519;SDS011;10921;53.614;9.882;2024-01-25T04:36:17;58.67;;;19.73;;
21519;SDS011;10921;53.614;9.882;2024-01-25T04:38:43;71.85;;;21.25;;
21519;SDS011;10921;53.614;9.882;2024-01-25T04:41:09;69.80;;;21.50;;
21519;SDS011;10921;53.614;9.882;2024-01-25T04:43:36;67.40;;;21.77;;
21519;SDS011;10921;53.614;9.882;2024-01-25T04:46:03;52.10;;;19.58;;
21519;SDS011;10921;53.614;9.882;2024-01-25T04:48:30;70.35;;;20.08;;
21519;SDS011;10921;53.614;9.882;2024-01-25T04:50:58;73.05;;;21.35;;
21519;SDS011;10921;53.614;9.882;2024-01-25T04:53:25;81.47;;;20.92;;
21519;SDS011;10921;53.614;9.882;2024-01-25T04:55:53;67.63;;;20.15;;
21519;SDS011;10921;53.614;9.882;2024-01-25T04:58:21;69.37;;;20.93;;
21519;SDS011;10921;53.614;9.882;2024-01-25T05:00:47;70.72;;;21.95;;
21519;SDS011;10921;53.614;9.882;2024-01-25T05:03:14;72.90;;;21.33;;
21519;SDS011;10921;53.614;9.882;2024-01-25T05:05:41;62.17;;;20.60;;
21519;SDS011;10921;53.614;9.882;2024-01-25T05:08:07;71.15;;;21.08;;
21519;SDS011;10921;53.614;9.882;2024-01-25T05:10:34;62.75;;;20.95;;
21519;SDS011;10921;53.614;9.882;2024-01-25T05:13:01;73.22;;;21.02;;
21519;SDS011;10921;53.614;9.882;2024-01-25T05:15:27;63.95;;;20.85;;
21519;SDS011;10921;53.614;9.882;2024-01-25T05:17:56;70.32;;;21.45;;
21519;SDS011;10921;53.614;9.882;2024-01-25T05:20:22;58.15;;;20.25;;
21519;SDS011;10921;53.614;9.882;2024-01-25T05:22:49;56.05;;;19.48;;
21519;SDS011;10921;53.614;9.882;2024-01-25T05:25:16;75.85;;;22.15;;
21519;SDS011;10921;53.614;9.882;2024-01-25T05:27:43;68.03;;;21.20;;
21519;SDS011;10921;53.614;9.882;2024-01-25T05:30:09;83.90;;;21.85;;
21519;SDS011;10921;53.614;9.882;2024-01-25T05:32:36;78.45;;;20.67;;
21519;SDS011;10921;53.614;9.882;2024-01-25T05:35:03;69.55;;;22.02;;
21519;SDS011;10921;53.614;9.882;2024-01-25T05:37:31;95.28;;;22.63;;
21519;SDS011;10921;53.614;9.882;2024-01-25T05:39:58;75.90;;;21.52;;
21519;SDS011;10921;53.614;9.882;2024-01-25T05:42:25;81.25;;;21.98;;
21519;SDS011;10921;53.614;9.882;2024-01-25T05:44:52;72.82;;;21.45;;
21519;SDS011;10921;53.614;9.882;2024-01-25T05:47:18;62.38;;;19.27;;
21519;SDS011;10921;53.614;9.882;2024-01-25T05:49:45;82.35;;;20.92;;
21519;SDS011;10921;53.614;9.882;2024-01-25T05:52:12;73.97;;;20.98;;
21519;SDS011;10921;53.614;9.882;2024-01-25T05:54:38;70.35;;;19.23;;
21519;SDS011;10921;53.614;9.882;2024-01-25T05:57:05;67.30;;;20.65;;
21519;SDS011;10921;53.614;9.882;2024-01-25T05:59:31;91.47;;;21.17;;
21519;SDS011;10921;53.614;9.882;2024-01-25T06:01:58;72.85;;;20.15;;
21519;SDS011;10921;53.614;9.882;2024-01-25T06:04:25;83.88;;;19.95;;
21519;SDS011;10921;53.614;9.882;2024-01-25T06:06:52;82.97;;;20.98;;
21519;SDS011;10921;53.614;9.882;2024-01-25T06:09:19;78.53;;;20.38;;
21519;SDS011;10921;53.614;9.882;2024-01-25T06:11:46;65.40;;;20.60;;
21519;SDS011;10921;53.614;9.882;2024-01-25T06:14:13;67.30;;;21.13;;
21519;SDS011;10921;53.614;9.882;2024-01-25T06:16:39;68.38;;;19.90;;
21519;SDS011;10921;53.614;9.882;2024-01-25T06:19:06;58.20;;;19.58;;
21519;SDS011;10921;53.614;9.882;2024-01-25T06:21:34;75.80;;;20.08;;
21519;SDS011;10921;53.614;9.882;2024-01-25T06:24:02;76.32;;;21.15;;
21519;SDS011;10921;53.614;9.882;2024-01-25T06:26:29;71.60;;;22.30;;
21519;SDS011;10921;53.614;9.882;2024-01-25T06:28:55;72.13;;;20.15;;
21519;SDS011;10921;53.614;9.882;2024-01-25T06:31:23;68.72;;;20.13;;
21519;SDS011;10921;53.614;9.882;2024-01-25T06:33:50;58.83;;;20.73;;
21519;SDS011;10921;53.614;9.882;2024-01-25T06:36:19;69.78;;;19.63;;
21519;SDS011;10921;53.614;9.882;2024-01-25T06:38:46;64.57;;;19.67;;
21519;SDS011;10921;53.614;9.882;2024-01-25T06:41:13;66.47;;;20.58;;
21519;SDS011;10921;53.614;9.882;2024-01-25T06:43:39;71.53;;;19.70;;
21519;SDS011;10921;53.614;9.882;2024-01-25T06:46:06;66.68;;;21.35;;
21519;SDS011;10921;53.614;9.882;2024-01-25T06:48:33;69.00;;;21.73;;
21519;SDS011;10921;53.614;9.882;2024-01-25T06:51:00;65.03;;;20.95;;
21519;SDS011;10921;53.614;9.882;2024-01-25T06:53:27;66.15;;;20.77;;
21519;SDS011;10921;53.614;9.882;2024-01-25T06:55:54;71.28;;;22.60;;
21519;SDS011;10921;53.614;9.882;2024-01-25T06:58:20;72.53;;;21.42;;
21519;SDS011;10921;53.614;9.882;2024-01-25T07:00:48;64.50;;;18.48;;
21519;SDS011;10921;53.614;9.882;2024-01-25T07:03:15;92.43;;;21.42;;
21519;SDS011;10921;53.614;9.882;2024-01-25T07:05:42;65.40;;;17.38;;
21519;SDS011;10921;53.614;9.882;2024-01-25T07:08:09;71.32;;;20.23;;
21519;SDS011;10921;53.614;9.882;2024-01-25T07:10:39;67.13;;;17.60;;
21519;SDS011;10921;53.614;9.882;2024-01-25T07:13:06;76.38;;;17.88;;
21519;SDS011;10921;53.614;9.882;2024-01-25T07:15:33;66.00;;;18.30;;
21519;SDS011;10921;53.614;9.882;2024-01-25T07:18:00;70.93;;;17.83;;
21519;SDS011;10921;53.614;9.882;2024-01-25T07:20:27;61.92;;;17.33;;
21519;SDS011;10921;53.614;9.882;2024-01-25T07:22:54;68.97;;;18.15;;
21519;SDS011;10921;53.614;9.882;2024-01-25T07:25:20;69.70;;;17.98;;
21519;SDS011;10921;53.614;9.882;2024-01-25T07:27:47;65.07;;;17.38;;
21519;SDS011;10921;53.614;9.882;2024-01-25T07:30:15;79.35;;;20.58;;
21519;SDS011;10921;53.614;9.882;2024-01-25T07:32:43;64.40;;;17.73;;
21519;SDS011;10921;53.614;9.882;2024-01-25T07:35:12;62.03;;;17.45;;
21519;SDS011;10921;53.614;9.882;2024-01-25T07:37:39;64.80;;;17.17;;
21519;SDS011;10921;53.614;9.882;2024-01-25T07:40:08;64.27;;;17.17;;
21519;SDS011;10921;53.614;9.882;2024-01-25T07:42:35;67.53;;;18.80;;
21519;SDS011;10921;53.614;9.882;2024-01-25T07:45:02;67.25;;;18.40;;
21519;SDS011;10921;53.614;9.882;2024-01-25T07:47:29;67.72;;;19.23;;
21519;SDS011;10921;53.614;9.882;2024-01-25T07:49:56;78.78;;;18.55;;
21519;SDS011;10921;53.614;9.882;2024-01-25T07:52:23;66.45;;;17.63;;
21519;SDS011;10921;53.614;9.882;2024-01-25T07:54:52;74.35;;;18.67;;
21519;SDS011;10921;53.614;9.882;2024-01-25T07:57:19;72.70;;;19.48;;
21519;SDS011;10921;53.614;9.882;2024-01-25T07:59:46;87.97;;;21.40;;
21519;SDS011;10921;53.614;9.882;2024-01-25T08:02:13;76.43;;;19.48;;
21519;SDS011;10921;53.614;9.882;2024-01-25T08:04:43;78.82;;;17.55;;
21519;SDS011;10921;53.614;9.882;2024-01-25T08:07:10;67.43;;;18.25;;
21519;SDS011;10921;53.614;9.882;2024-01-25T08:09:37;83.18;;;19.05;;
21519;SDS011;10921;53.614;9.882;2024-01-25T08:12:03;86.28;;;19.30;;
21519;SDS011;10921;53.614;9.882;2024-01-25T08:14:30;60.42;;;18.17;;
21519;SDS011;10921;53.614;9.882;2024-01-25T08:16:58;67.82;;;19.23;;
21519;SDS011;10921;53.614;9.882;2024-01-25T08:19:24;66.70;;;17.52;;
21519;SDS011;10921;53.614;9.882;2024-01-25T08:21:52;74.25;;;19.23;;
21519;SDS011;10921;53.614;9.882;2024-01-25T08:24:18;60.17;;;18.55;;
21519;SDS011;10921;53.614;9.882;2024-01-25T08:26:45;72.40;;;18.13;;
21519;SDS011;10921;53.614;9.882;2024-01-25T08:29:11;68.45;;;19.30;;
21519;SDS011;10921;53.614;9.882;2024-01-25T08:31:38;75.93;;;17.98;;
21519;SDS011;10921;53.614;9.882;2024-01-25T08:34:04;77.75;;;19.75;;
21519;SDS011;10921;53.614;9.882;2024-01-25T08:36:32;69.18;;;19.10;;
21519;SDS011;10921;53.614;9.882;2024-01-25T08:38:59;68.90;;;18.38;;
21519;SDS011;10921;53.614;9.882;2024-01-25T08:41:25;61.10;;;18.08;;
21519;SDS011;10921;53.614;9.882;2024-01-25T08:43:51;65.70;;;18.30;;
21519;SDS011;10921;53.614;9.882;2024-01-25T08:46:18;71.72;;;18.75;;
21519;SDS011;10921;53.614;9.882;2024-01-25T08:48:45;66.50;;;16.80;;
21519;SDS011;10921;53.614;9.882;2024-01-25T08:51:12;71.38;;;18.90;;
21519;SDS011;10921;53.614;9.882;2024-01-25T08:53:40;67.25;;;17.75;;
21519;SDS011;10921;53.614;9.882;2024-01-25T08:56:06;76.25;;;19.05;;
21519;SDS011;10921;53.614;9.882;2024-01-25T08:58:33;82.45;;;18.48;;
21519;SDS011;10921;53.614;9.882;2024-01-25T09:00:59;60.63;;;17.17;;
21519;SDS011;10921;53.614;9.882;2024-01-25T09:03:26;69.95;;;17.65;;
21519;SDS011;10921;53.614;9.882;2024-01-25T09:05:53;80.85;;;18.63;;
21519;SDS011;10921;53.614;9.882;2024-01-25T09:08:19;80.22;;;18.05;;
21519;SDS011;10921;53.614;9.882;2024-01-25T09:10:46;62.25;;;17.23;;
21519;SDS011;10921;53.614;9.882;2024-01-25T09:13:13;80.38;;;19.27;;
21519;SDS011;10921;53.614;9.882;2024-01-25T09:15:40;76.28;;;18.80;;
21519;SDS011;10921;53.614;9.882;2024-01-25T09:18:06;73.30;;;18.60;;
21519;SDS011;10921;53.614;9.882;2024-01-25T09:20:33;73.90;;;17.08;;
21519;SDS011;10921;53.614;9.882;2024-01-25T09:23:00;68.60;;;18.48;;
21519;SDS011;10921;53.614;9.882;2024-01-25T09:25:26;71.95;;;18.23;;
21519;SDS011;10921;53.614;9.882;2024-01-25T09:27:53;76.88;;;18.38;;
21519;SDS011;10921;53.614;9.882;2024-01-25T09:30:21;66.97;;;16.75;;
21519;SDS011;10921;53.614;9.882;2024-01-25T09:32:48;87.70;;;17.90;;
21519;SDS011;10921;53.614;9.882;2024-01-25T09:35:15;59.40;;;18.00;;
21519;SDS011;10921;53.614;9.882;2024-01-25T09:37:42;71.65;;;19.73;;
21519;SDS011;10921;53.614;9.882;2024-01-25T09:40:08;75.82;;;18.02;;
21519;SDS011;10921;53.614;9.882;2024-01-25T09:42:37;61.05;;;16.98;;
21519;SDS011;10921;53.614;9.882;2024-01-25T09:45:08;76.53;;;18.17;;
21519;SDS011;10921;53.614;9.882;2024-01-25T09:47:42;69.72;;;17.73;;
21519;SDS011;10921;53.614;9.882;2024-01-25T09:50:09;64.38;;;18.40;;
21519;SDS011;10921;53.614;9.882;2024-01-25T09:52:37;67.57;;;17.92;;
21519;SDS011;10921;53.614;9.882;2024-01-25T09:55:04;67.78;;;17.60;;
21519;SDS011;10921;53.614;9.882;2024-01-25T09:57:34;65.20;;;17.52;;
21519;SDS011;10921;53.614;9.882;2024-01-25T10:02:32;66.78;;;18.88;;
21519;SDS011;10921;53.614;9.882;2024-01-25T10:04:59;72.78;;;17.85;;
21519;SDS011;10921;53.614;9.882;2024-01-25T10:07:39;55.38;;;17.48;;
21519;SDS011;10921;53.614;9.882;2024-01-25T10:10:14;69.55;;;18.70;;
21519;SDS011;10921;53.614;9.882;2024-01-25T10:12:41;80.30;;;18.45;;
21519;SDS011;10921;53.614;9.882;2024-01-25T10:15:10;83.38;;;17.45;;
21519;SDS011;10921;53.614;9.882;2024-01-25T10:17:36;58.63;;;18.13;;
21519;SDS011;10921;53.614;9.882;2024-01-25T10:20:07;74.15;;;18.30;;
21519;SDS011;10921;53.614;9.882;2024-01-25T10:22:37;51.95;;;17.27;;
21519;SDS011;10921;53.614;9.882;2024-01-25T10:25:11;55.67;;;16.70;;
21519;SDS011;10921;53.614;9.882;2024-01-25T10:27:39;63.50;;;16.30;;
21519;SDS011;10921;53.614;9.882;2024-01-25T10:30:07;72.95;;;16.85;;
21519;SDS011;10921;53.614;9.882;2024-01-25T10:32:36;62.58;;;17.52;;
21519;SDS011;10921;53.614;9.882;2024-01-25T10:35:03;58.35;;;16.77;;
21519;SDS011;10921;53.614;9.882;2024-01-25T10:37:32;55.42;;;15.43;;
21519;SDS011;10921;53.614;9.882;2024-01-25T10:39:59;57.75;;;16.95;;
21519;SDS011;10921;53.614;9.882;2024-01-25T10:42:26;53.45;;;15.68;;
21519;SDS011;10921;53.614;9.882;2024-01-25T10:44:53;58.42;;;17.58;;
21519;SDS011;10921;53.614;9.882;2024-01-25T10:47:20;64.00;;;16.90;;
21519;SDS011;10921;53.614;9.882;2024-01-25T10:49:47;90.50;;;19.35;;
21519;SDS011;10921;53.614;9.882;2024-01-25T10:52:15;62.88;;;16.30;;
21519;SDS011;10921;53.614;9.882;2024-01-25T10:54:42;74.55;;;17.85;;
21519;SDS011;10921;53.614;9.882;2024-01-25T10:57:09;71.95;;;17.20;;
21519;SDS011;10921;53.614;9.882;2024-01-25T10:59:36;58.97;;;17.00;;
21519;SDS011;10921;53.614;9.882;2024-01-25T11:02:03;73.47;;;18.23;;
21519;SDS011;10921;53.614;9.882;2024-01-25T11:04:30;63.58;;;18.77;;
21519;SDS011;10921;53.614;9.882;2024-01-25T11:07:04;49.50;;;16.80;;
21519;SDS011;10921;53.614;9.882;2024-01-25T11:09:34;60.70;;;17.20;;
21519;SDS011;10921;53.614;9.882;2024-01-25T11:12:10;64.00;;;17.13;;
21519;SDS011;10921;53.614;9.882;2024-01-25T11:14:38;66.95;;;17.27;;
21519;SDS011;10921;53.614;9.882;2024-01-25T11:17:14;63.30;;;17.77;;
21519;SDS011;10921;53.614;9.882;2024-01-25T11:19:43;62.80;;;17.17;;
21519;SDS011;10921;53.614;9.882;2024-01-25T11:22:10;62.00;;;17.13;;
21519;SDS011;10921;53.614;9.882;2024-01-25T11:24:37;65.43;;;17.85;;
21519;SDS011;10921;53.614;9.882;2024-01-25T11:27:05;55.83;;;17.15;;
21519;SDS011;10921;53.614;9.882;2024-01-25T11:29:32;65.45;;;17.90;;
21519;SDS011;10921;53.614;9.882;2024-01-25T11:31:59;62.80;;;16.40;;
21519;SDS011;10921;53.614;9.882;2024-01-25T11:34:26;78.15;;;19.48;;
21519;SDS011;10921;53.614;9.882;2024-01-25T11:36:52;60.33;;;16.92;;
21519;SDS011;10921;53.614;9.882;2024-01-25T11:39:19;64.38;;;16.70;;
21519;SDS011;10921;53.614;9.882;2024-01-25T11:41:46;71.80;;;17.40;;
21519;SDS011;10921;53.614;9.882;2024-01-25T11:44:13;61.85;;;15.88;;
21519;SDS011;10921;53.614;9.882;2024-01-25T11:46:40;63.25;;;17.38;;
21519;SDS011;10921;53.614;9.882;2024-01-25T11:49:07;57.10;;;17.50;;
21519;SDS011;10921;53.614;9.882;2024-01-25T11:51:34;61.33;;;16.23;;
21519;SDS011;10921;53.614;9.882;2024-01-25T11:54:01;58.15;;;15.70;;
21519;SDS011;10921;53.614;9.882;2024-01-25T11:56:28;61.95;;;15.82;;
21519;SDS011;10921;53.614;9.882;2024-01-25T11:58:57;65.32;;;16.60;;
21519;SDS011;10921;53.614;9.882;2024-01-25T12:01:24;53.92;;;15.35;;
21519;SDS011;10921;53.614;9.882;2024-01-25T12:03:52;56.10;;;16.67;;
21519;SDS011;10921;53.614;9.882;2024-01-25T12:06:20;55.05;;;16.23;;
21519;SDS011;10921;53.614;9.882;2024-01-25T12:08:47;54.15;;;15.63;;
21519;SDS011;10921;53.614;9.882;2024-01-25T12:11:18;59.25;;;16.08;;
21519;SDS011;10921;53.614;9.882;2024-01-25T12:13:45;57.22;;;17.67;;
21519;SDS011;10921;53.614;9.882;2024-01-25T12:16:12;60.22;;;17.08;;
21519;SDS011;10921;53.614;9.882;2024-01-25T12:18:41;50.92;;;15.95;;
21519;SDS011;10921;53.614;9.882;2024-01-25T12:21:09;56.22;;;16.00;;
21519;SDS011;10921;53.614;9.882;2024-01-25T12:23:39;52.50;;;16.48;;
21519;SDS011;10921;53.614;9.882;2024-01-25T12:26:07;63.38;;;16.90;;
21519;SDS011;10921;53.614;9.882;2024-01-25T12:28:36;54.83;;;15.83;;
21519;SDS011;10921;53.614;9.882;2024-01-25T12:31:04;62.90;;;15.65;;
21519;SDS011;10921;53.614;9.882;2024-01-25T12:33:32;53.95;;;16.27;;
21519;SDS011;10921;53.614;9.882;2024-01-25T12:36:03;51.17;;;15.90;;
21519;SDS011;10921;53.614;9.882;2024-01-25T12:38:31;58.25;;;16.42;;
21519;SDS011;10921;53.614;9.882;2024-01-25T12:41:00;64.13;;;19.13;;
21519;SDS011;10921;53.614;9.882;2024-01-25T12:43:28;54.97;;;18.63;;
21519;SDS011;10921;53.614;9.882;2024-01-25T12:45:56;50.17;;;16.95;;
21519;SDS011;10921;53.614;9.882;2024-01-25T12:48:34;58.35;;;16.30;;
21519;SDS011;10921;53.614;9.882;2024-01-25T12:51:01;51.38;;;15.82;;
21519;SDS011;10921;53.614;9.882;2024-01-25T12:53:28;67.50;;;16.67;;
21519;SDS011;10921;53.614;9.882;2024-01-25T12:55:55;52.97;;;16.48;;
21519;SDS011;10921;53.614;9.882;2024-01-25T12:58:21;60.45;;;16.77;;
21519;SDS011;10921;53.614;9.882;2024-01-25T13:00:48;49.65;;;15.40;;
21519;SDS011;10921;53.614;9.882;2024-01-25T13:03:15;59.67;;;16.98;;
21519;SDS011;10921;53.614;9.882;2024-01-25T13:05:41;57.58;;;15.98;;
21519;SDS011;10921;53.614;9.882;2024-01-25T13:08:08;62.92;;;19.77;;
21519;SDS011;10921;53.614;9.882;2024-01-25T13:10:35;47.25;;;18.35;;
21519;SDS011;10921;53.614;9.882;2024-01-25T13:13:01;56.60;;;18.05;;
21519;SDS011;10921;53.614;9.882;2024-01-25T13:15:28;43.97;;;18.92;;
21519;SDS011;10921;53.614;9.882;2024-01-25T13:17:56;55.42;;;18.85;;
21519;SDS011;10921;53.614;9.882;2024-01-25T13:20:26;58.22;;;19.55;;
21519;SDS011;10921;53.614;9.882;2024-01-25T13:22:53;45.03;;;18.25;;
21519;SDS011;10921;53.614;9.882;2024-01-25T13:25:19;50.45;;;18.17;;
21519;SDS011;10921;53.614;9.882;2024-01-25T13:27:46;40.95;;;17.20;;
21519;SDS011;10921;53.614;9.882;2024-01-25T13:30:13;53.40;;;18.98;;
21519;SDS011;10921;53.614;9.882;2024-01-25T13:32:40;56.00;;;18.10;;
21519;SDS011;10921;53.614;9.882;2024-01-25T13:35:07;54.00;;;18.88;;
21519;SDS011;10921;53.614;9.882;2024-01-25T13:37:34;41.97;;;17.42;;
21519;SDS011;10921;53.614;9.882;2024-01-25T13:40:00;53.83;;;18.15;;
21519;SDS011;10921;53.614;9.882;2024-01-25T13:42:27;56.03;;;19.02;;
21519;SDS011;10921;53.614;9.882;2024-01-25T13:44:54;52.55;;;18.05;;
21519;SDS011;10921;53.614;9.882;2024-01-25T13:47:20;56.50;;;19.73;;
21519;SDS011;10921;53.614;9.882;2024-01-25T13:49:47;54.33;;;18.48;;
21519;SDS011;10921;53.614;9.882;2024-01-25T13:52:18;57.03;;;19.02;;
21519;SDS011;10921;53.614;9.882;2024-01-25T13:54:48;59.38;;;19.15;;
21519;SDS011;10921;53.614;9.882;2024-01-25T13:57:18;43.70;;;17.48;;
21519;SDS011;10921;53.614;9.882;2024-01-25T13:59:46;50.42;;;19.45;;
21519;SDS011;10921;53.614;9.882;2024-01-25T14:02:13;55.72;;;18.77;;
21519;SDS011;10921;53.614;9.882;2024-01-25T14:04:39;60.58;;;18.55;;
21519;SDS011;10921;53.614;9.882;2024-01-25T14:07:07;62.55;;;18.70;;
21519;SDS011;10921;53.614;9.882;2024-01-25T14:09:33;56.63;;;18.65;;
21519;SDS011;10921;53.614;9.882;2024-01-25T14:12:00;60.33;;;19.55;;
21519;SDS011;10921;53.614;9.882;2024-01-25T14:14:27;62.17;;;18.27;;
21519;SDS011;10921;53.614;9.882;2024-01-25T14:16:53;63.95;;;18.92;;
21519;SDS011;10921;53.614;9.882;2024-01-25T14:19:20;54.03;;;17.83;;
21519;SDS011;10921;53.614;9.882;2024-01-25T14:21:47;61.20;;;18.75;;
21519;SDS011;10921;53.614;9.882;2024-01-25T14:24:35;54.67;;;18.15;;
21519;SDS011;10921;53.614;9.882;2024-01-25T14:27:01;44.90;;;18.13;;
21519;SDS011;10921;53.614;9.882;2024-01-25T14:29:29;50.60;;;18.58;;